createdAt,value
2019-04-16T00:00:18.026Z,77.83
2019-04-16T00:01:18.267Z,77.55
2019-04-16T00:02:21.052Z,77.73
2019-04-16T00:03:20.210Z,77.45
2019-04-16T00:04:18.243Z,77.55
2019-04-16T00:05:17.990Z,78.02
2019-04-16T00:06:18.227Z,78.21
2019-04-16T00:07:18.217Z,78.11
2019-04-16T00:08:29.612Z,77.64
2019-04-16T00:09:17.964Z,77.55
2019-04-16T00:10:17.952Z,77.45
2019-04-16T00:11:17.941Z,77.55
2019-04-16T00:12:18.185Z,77.73
2019-04-16T00:13:18.186Z,78.02
2019-04-16T00:14:18.170Z,78.11
2019-04-16T00:15:17.915Z,77.83
2019-04-16T00:16:18.165Z,77.64
2019-04-16T00:17:18.912Z,78.02
2019-04-16T00:18:20.745Z,78.5
2019-04-16T00:19:17.884Z,78.08
2019-04-16T00:20:18.128Z,77.89
2019-04-16T00:21:18.118Z,78.55
2019-04-16T00:22:17.875Z,78.64
2019-04-16T00:23:18.101Z,78.55
2019-04-16T00:24:20.982Z,78.55
2019-04-16T00:25:18.100Z,79.31
2019-04-16T00:26:17.839Z,79.5
2019-04-16T00:27:17.837Z,79.22
2019-04-16T00:28:18.067Z,79.31
2019-04-16T00:29:18.071Z,79.79
2019-04-16T00:30:17.800Z,79.5
2019-04-16T00:31:18.046Z,79.88
2019-04-16T00:32:18.039Z,79.88
2019-04-16T00:33:18.037Z,79.88
2019-04-16T00:34:18.267Z,79.88
2019-04-16T00:35:18.763Z,79.97
2019-04-16T00:36:20.976Z,79.79
2019-04-16T00:37:23.026Z,79.88
2019-04-16T00:38:22.390Z,79.69
2019-04-16T00:39:17.735Z,80.64
2019-04-16T00:40:17.980Z,79.69
2019-04-16T00:41:17.724Z,79.88
2019-04-16T00:42:17.713Z,79.69
2019-04-16T00:43:17.714Z,79.69
2019-04-16T00:44:17.955Z,80.35
2019-04-16T00:45:17.936Z,80.74
2019-04-16T00:46:17.934Z,81.12
2019-04-16T00:47:17.688Z,80.64
2019-04-16T00:48:17.926Z,80.74
2019-04-16T00:49:17.728Z,80.45
2019-04-16T00:50:17.905Z,81.02
2019-04-16T00:51:17.894Z,81.07
2019-04-16T00:52:18.207Z,82.21
2019-04-16T00:53:17.643Z,82.31
2019-04-16T00:54:17.880Z,82.12
2019-04-16T00:55:17.860Z,82.31
2019-04-16T00:56:19.053Z,82.69
2019-04-16T00:57:20.535Z,82.4
2019-04-16T00:58:22.087Z,82.03
2019-04-16T00:59:17.586Z,82.35
2019-04-16T01:00:17.835Z,82.31
2019-04-16T01:01:17.566Z,82.35
2019-04-16T01:02:17.585Z,82.54
2019-04-16T01:03:17.801Z,82.4
2019-04-16T01:04:18.811Z,82.35
2019-04-16T01:05:17.787Z,81.78
2019-04-16T01:06:17.785Z,81.97
2019-04-16T01:07:17.778Z,81.87
2019-04-16T01:08:17.763Z,82.21
2019-04-16T01:09:17.763Z,82.12
2019-04-16T01:10:17.745Z,82.59
2019-04-16T01:11:17.746Z,81.93
2019-04-16T01:12:17.738Z,81.93
2019-04-16T01:13:17.720Z,82.03
2019-04-16T01:14:17.724Z,82.12
2019-04-16T01:15:17.476Z,82.4
2019-04-16T01:16:17.458Z,82.69
2019-04-16T01:17:17.693Z,82.59
2019-04-16T01:18:17.685Z,82.97
2019-04-16T01:19:17.472Z,83.36
2019-04-16T01:20:17.680Z,83.26
2019-04-16T01:21:17.678Z,82.69
2019-04-16T01:22:18.511Z,83.16
2019-04-16T01:23:20.794Z,83.16
2019-04-16T01:24:22.296Z,83.45
2019-04-16T01:25:20.208Z,83.92
2019-04-16T01:26:17.622Z,84.59
2019-04-16T01:27:17.608Z,83.83
2019-04-16T01:28:17.613Z,84.3
2019-04-16T01:29:17.345Z,83.73
2019-04-16T01:30:17.596Z,83.92
2019-04-16T01:31:17.592Z,83.83
2019-04-16T01:32:17.591Z,83.83
2019-04-16T01:33:17.752Z,84.3
2019-04-16T01:34:20.460Z,84.49
2019-04-16T01:35:21.330Z,84.4
2019-04-16T01:36:17.540Z,84.59
2019-04-16T01:37:17.539Z,84.78
2019-04-16T01:38:17.308Z,84.68
2019-04-16T01:39:20.616Z,84.68
2019-04-16T01:40:20.783Z,84.59
2019-04-16T01:41:21.614Z,85.25
2019-04-16T01:42:17.492Z,84.68
2019-04-16T01:43:17.482Z,84.78
2019-04-16T01:44:17.475Z,84.78
2019-04-16T01:45:17.226Z,84.59
2019-04-16T01:46:17.460Z,85.44
2019-04-16T01:47:17.210Z,85.16
2019-04-16T01:48:17.445Z,85.16
2019-04-16T01:49:17.441Z,85.82
2019-04-16T01:50:17.176Z,86.11
2019-04-16T01:51:18.585Z,85.63
2019-04-16T01:52:21.232Z,86.16
2019-04-16T01:53:18.280Z,86.2
2019-04-16T01:54:17.156Z,86.87
2019-04-16T01:55:17.394Z,86.39
2019-04-16T01:56:17.133Z,87.01
2019-04-16T01:57:17.426Z,86.82
2019-04-16T01:58:17.358Z,86.82
2019-04-16T01:59:17.110Z,86.91
2019-04-16T02:00:17.341Z,86.54
2019-04-16T02:01:17.347Z,87.58
2019-04-16T02:02:18.138Z,87.2
2019-04-16T02:03:19.951Z,87.68
2019-04-16T02:04:22.116Z,88.24
2019-04-16T02:05:17.550Z,88.72
2019-04-16T02:06:17.053Z,88.57
2019-04-16T02:07:17.039Z,87.96
2019-04-16T02:08:17.031Z,88.24
2019-04-16T02:09:25.056Z,88.24
2019-04-16T02:10:17.259Z,88.43
2019-04-16T02:11:17.026Z,88.24
2019-04-16T02:12:17.244Z,88.86
2019-04-16T02:13:18.368Z,88.62
2019-04-16T02:14:22.322Z,88.91
2019-04-16T02:15:21.560Z,88.91
2019-04-16T02:16:17.217Z,88.62
2019-04-16T02:17:17.212Z,88.24
2019-04-16T02:18:16.951Z,87.96
2019-04-16T02:19:16.950Z,88.1
2019-04-16T02:20:17.181Z,88.15
2019-04-16T02:21:17.177Z,88.72
2019-04-16T02:22:16.917Z,88.34
2019-04-16T02:23:19.466Z,88.72
2019-04-16T02:24:20.867Z,88.81
2019-04-16T02:25:21.442Z,88.91
2019-04-16T02:26:17.142Z,89.67
2019-04-16T02:27:16.877Z,89.1
2019-04-16T02:28:16.874Z,90.24
2019-04-16T02:29:17.166Z,90.05
2019-04-16T02:30:17.137Z,90.33
2019-04-16T02:31:18.788Z,90.33
2019-04-16T02:32:17.096Z,89.48
2019-04-16T02:33:17.088Z,89.39
2019-04-16T02:34:17.085Z,89.29
2019-04-16T02:35:17.053Z,88.91
2019-04-16T02:36:17.069Z,88.81
2019-04-16T02:37:17.046Z,88.34
2019-04-16T02:38:17.034Z,88.72
2019-04-16T02:39:17.019Z,88.95
2019-04-16T02:40:20.939Z,88.24
2019-04-16T02:41:17.019Z,88.24
2019-04-16T02:42:16.992Z,88.81
2019-04-16T02:43:16.762Z,88.81
2019-04-16T02:44:19.403Z,88.91
2019-04-16T02:45:22.438Z,88.81
2019-04-16T02:46:16.963Z,88.81
2019-04-16T02:47:16.714Z,88.72
2019-04-16T02:48:19.594Z,88.81
2019-04-16T02:49:22.900Z,88.72
2019-04-16T02:50:16.948Z,88.62
2019-04-16T02:51:16.693Z,88.62
2019-04-16T02:52:18.935Z,89.1
2019-04-16T02:53:17.166Z,89.58
2019-04-16T02:54:16.899Z,89.39
2019-04-16T02:55:16.644Z,89.58
2019-04-16T02:56:21.441Z,90.43
2019-04-16T02:57:16.878Z,90.14
2019-04-16T02:58:16.634Z,90.52
2019-04-16T02:59:16.874Z,90.52
2019-04-16T03:00:20.771Z,90.62
2019-04-16T03:01:20.344Z,90.43
2019-04-16T03:02:16.841Z,90.14
2019-04-16T03:03:16.578Z,90.43
2019-04-16T03:04:16.833Z,90.43
2019-04-16T03:05:16.814Z,90.52
2019-04-16T03:06:19.468Z,91
2019-04-16T03:07:16.814Z,90.9
2019-04-16T03:08:16.528Z,91.09
2019-04-16T03:09:16.786Z,90.62
2019-04-16T03:10:16.780Z,90.81
2019-04-16T03:11:20.283Z,91.09
2019-04-16T03:12:17.527Z,91.47
2019-04-16T03:13:16.733Z,91.38
2019-04-16T03:14:16.722Z,91.75
2019-04-16T03:15:16.490Z,91.28
2019-04-16T03:16:16.711Z,91.28
2019-04-16T03:17:16.703Z,91.38
2019-04-16T03:18:17.901Z,91.66
2019-04-16T03:19:21.540Z,91.47
2019-04-16T03:20:16.445Z,91.47
2019-04-16T03:21:16.667Z,91.56
2019-04-16T03:22:16.662Z,91.66
2019-04-16T03:23:16.647Z,91.75
2019-04-16T03:24:16.631Z,92.23
2019-04-16T03:25:17.143Z,91.85
2019-04-16T03:26:20.298Z,91.85
2019-04-16T03:27:21.787Z,91.66
2019-04-16T03:28:16.602Z,91.38
2019-04-16T03:29:16.593Z,91.75
2019-04-16T03:30:16.661Z,91.56
2019-04-16T03:31:23.643Z,92.94
2019-04-16T03:32:17.741Z,92.38
2019-04-16T03:33:17.732Z,92.52
2019-04-16T03:34:19.002Z,92.47
2019-04-16T03:35:16.293Z,92.85
2019-04-16T03:36:16.287Z,93.13
2019-04-16T03:37:16.281Z,92.66
2019-04-16T03:38:16.521Z,93.13
2019-04-16T03:39:16.705Z,93.04
2019-04-16T03:40:24.593Z,92.94
2019-04-16T03:41:16.488Z,93.51
2019-04-16T03:42:16.290Z,92.94
2019-04-16T03:43:16.485Z,93.04
2019-04-16T03:44:16.425Z,92.94
2019-04-16T03:45:16.231Z,93.8
2019-04-16T03:46:16.948Z,93.99
2019-04-16T03:47:21.063Z,94.27
2019-04-16T03:48:16.181Z,94.65
2019-04-16T03:49:16.180Z,94.84
2019-04-16T03:50:16.159Z,94.46
2019-04-16T03:51:16.401Z,94.37
2019-04-16T03:52:16.396Z,94.56
2019-04-16T03:53:20.182Z,94.65
2019-04-16T03:54:18.781Z,93.89
2019-04-16T03:55:16.599Z,94.18
2019-04-16T03:56:16.125Z,93.99
2019-04-16T03:57:16.349Z,94.56
2019-04-16T03:58:16.351Z,94.84
2019-04-16T03:59:16.081Z,94.08
2019-04-16T04:00:16.334Z,94.08
2019-04-16T04:01:17.814Z,93.99
2019-04-16T04:02:21.700Z,93.8
2019-04-16T04:03:16.307Z,94.18
2019-04-16T04:04:16.284Z,94.18
2019-04-16T04:05:16.284Z,93.99
2019-04-16T04:06:16.271Z,94.18
2019-04-16T04:07:18.472Z,93.61
2019-04-16T04:08:20.128Z,93.61
2019-04-16T04:09:18.815Z,93.7
2019-04-16T04:10:29.366Z,93.8
2019-04-16T04:11:15.980Z,94.56
2019-04-16T04:12:16.660Z,94.56
2019-04-16T04:13:19.831Z,94.65
2019-04-16T04:14:15.952Z,94.74
2019-04-16T04:15:16.188Z,94.46
2019-04-16T04:16:15.931Z,94.56
2019-04-16T04:17:15.928Z,94.18
2019-04-16T04:18:16.291Z,94.27
2019-04-16T04:19:18.335Z,93.8
2019-04-16T04:20:19.789Z,93.61
2019-04-16T04:21:20.892Z,93.23
2019-04-16T04:22:16.129Z,93.41
2019-04-16T04:23:15.878Z,93.89
2019-04-16T04:24:16.110Z,93.99
2019-04-16T04:25:15.854Z,94.37
2019-04-16T04:26:16.086Z,94.46
2019-04-16T04:27:21.171Z,94.74
2019-04-16T04:28:21.411Z,94.65
2019-04-16T04:29:16.156Z,94.84
2019-04-16T04:30:15.803Z,94.84
2019-04-16T04:31:16.051Z,94.27
2019-04-16T04:32:16.058Z,94.46
2019-04-16T04:33:16.035Z,94.65
2019-04-16T04:34:19.255Z,94.27
2019-04-16T04:35:19.924Z,94.56
2019-04-16T04:36:18.687Z,94.84
2019-04-16T04:37:15.753Z,94.93
2019-04-16T04:38:15.808Z,95.31
2019-04-16T04:39:18.077Z,95.31
2019-04-16T04:40:19.103Z,95.41
2019-04-16T04:41:15.943Z,95.41
2019-04-16T04:42:18.884Z,95.79
2019-04-16T04:43:16.035Z,96.26
2019-04-16T04:44:16.199Z,95.98
2019-04-16T04:45:16.029Z,96.17
2019-04-16T04:46:17.713Z,95.74
2019-04-16T04:47:20.748Z,95.27
2019-04-16T04:48:15.903Z,95.55
2019-04-16T04:49:15.656Z,95.27
2019-04-16T04:50:15.881Z,94.89
2019-04-16T04:51:15.624Z,94.79
2019-04-16T04:52:17.227Z,94.32
2019-04-16T04:53:20.907Z,93.65
2019-04-16T04:54:15.602Z,93.84
2019-04-16T04:55:15.666Z,93.27
2019-04-16T04:56:18.753Z,93.18
2019-04-16T04:57:15.566Z,93.18
2019-04-16T04:58:15.846Z,92.33
2019-04-16T04:59:15.551Z,92.33
2019-04-16T05:00:15.795Z,92.61
2019-04-16T05:01:16.500Z,92.61
2019-04-16T05:02:17.587Z,92.61
2019-04-16T05:03:19.207Z,92.42
2019-04-16T05:04:18.836Z,92.23
2019-04-16T05:05:15.510Z,92.61
2019-04-16T05:06:15.740Z,92.85
2019-04-16T05:07:15.734Z,92.37
2019-04-16T05:08:15.736Z,91.33
2019-04-16T05:09:15.691Z,88.9
2019-04-16T05:10:15.707Z,87.1
2019-04-16T05:11:18.926Z,84.95
2019-04-16T05:12:17.754Z,83.44
2019-04-16T05:13:15.716Z,81.92
2019-04-16T05:14:15.438Z,80.34
2019-04-16T05:15:15.426Z,79.01
2019-04-16T05:16:15.630Z,77.34
2019-04-16T05:17:15.787Z,76.48
2019-04-16T05:18:15.796Z,75.81
2019-04-16T05:19:17.525Z,75.28
2019-04-16T05:20:18.617Z,73.95
2019-04-16T05:21:20.369Z,72.05
2019-04-16T05:22:15.393Z,71.42
2019-04-16T05:23:15.643Z,70.94
2019-04-16T05:24:15.644Z,70.37
2019-04-16T05:25:15.619Z,69.42
2019-04-16T05:26:15.622Z,68.21
2019-04-16T05:27:15.623Z,67.55
2019-04-16T05:28:15.902Z,67.64
2019-04-16T05:29:19.874Z,68.65
2019-04-16T05:30:19.815Z,69.51
2019-04-16T05:31:15.348Z,70.05
2019-04-16T05:32:15.684Z,71.67
2019-04-16T05:33:15.517Z,72.77
2019-04-16T05:34:17.502Z,73.72
2019-04-16T05:35:15.329Z,74.87
2019-04-16T05:36:20.586Z,75.59
2019-04-16T05:37:16.346Z,76.35
2019-04-16T05:38:17.479Z,77.11
2019-04-16T05:39:15.316Z,77.49
2019-04-16T05:40:15.558Z,78.06
2019-04-16T05:41:22.848Z,78.06
2019-04-16T05:42:15.298Z,78.3
2019-04-16T05:43:15.551Z,78.69
2019-04-16T05:44:15.537Z,78.88
2019-04-16T05:45:15.484Z,79.63
2019-04-16T05:46:15.579Z,80.4
2019-04-16T05:47:19.527Z,77.97
2019-04-16T05:48:15.613Z,76.2
2019-04-16T05:49:15.724Z,73
2019-04-16T05:50:15.578Z,71
2019-04-16T05:51:15.252Z,69.32
2019-04-16T05:52:15.252Z,68.21
2019-04-16T05:53:16.306Z,67.35
2019-04-16T05:54:15.727Z,65.39
2019-04-16T05:55:19.525Z,64.05
2019-04-16T05:56:15.223Z,62.84
2019-04-16T05:57:15.691Z,61.22
2019-04-16T05:58:15.223Z,61.51
2019-04-16T05:59:15.441Z,61.7
2019-04-16T06:00:15.460Z,62.24
2019-04-16T06:01:16.240Z,63.29
2019-04-16T06:02:20.539Z,64.31
2019-04-16T06:03:15.459Z,65.8
2019-04-16T06:04:15.480Z,67.32
2019-04-16T06:05:15.848Z,67.61
2019-04-16T06:06:15.664Z,68.43
2019-04-16T06:07:15.444Z,68.9
2019-04-16T06:08:15.495Z,69.67
2019-04-16T06:09:16.001Z,70.05
2019-04-16T06:10:19.739Z,70.58
2019-04-16T06:11:35.622Z,71.06
2019-04-16T06:12:15.419Z,71.91
2019-04-16T06:13:15.874Z,71.91
2019-04-16T06:14:19.795Z,72.77
2019-04-16T06:15:15.409Z,72.77
2019-04-16T06:16:15.383Z,73.15
2019-04-16T06:17:15.160Z,73.19
2019-04-16T06:18:17.742Z,71.38
2019-04-16T06:19:15.233Z,71.28
2019-04-16T06:20:18.921Z,69.95
2019-04-16T06:21:15.880Z,69.23
2019-04-16T06:22:15.371Z,68.75
2019-04-16T06:23:15.121Z,68.56
2019-04-16T06:24:15.375Z,67.64
2019-04-16T06:25:15.998Z,65.96
2019-04-16T06:26:18.959Z,64.18
2019-04-16T06:27:15.815Z,61.99
2019-04-16T06:28:15.443Z,60.02
2019-04-16T06:29:15.099Z,58.23
2019-04-16T06:30:15.375Z,57.5
2019-04-16T06:31:15.364Z,56.45
2019-04-16T06:32:15.344Z,55.52
2019-04-16T06:33:15.334Z,54.68
2019-04-16T06:34:15.341Z,52.96
2019-04-16T06:35:15.094Z,52.39
2019-04-16T06:36:15.343Z,52.22
2019-04-16T06:37:20.240Z,51.27
2019-04-16T06:38:15.424Z,50.7
2019-04-16T06:39:15.398Z,50.62
2019-04-16T06:40:15.161Z,49.66
2019-04-16T06:41:15.202Z,49.48
2019-04-16T06:42:15.429Z,49.19
2019-04-16T06:43:15.343Z,48.83
2019-04-16T06:44:15.335Z,48.25
2019-04-16T06:45:15.528Z,46.94
2019-04-16T06:46:15.086Z,46.65
2019-04-16T06:47:15.336Z,46
2019-04-16T06:48:16.297Z,45.43
2019-04-16T06:49:19.442Z,45.52
2019-04-16T06:50:29.489Z,45.33
2019-04-16T06:51:15.551Z,45.14
2019-04-16T06:52:20.012Z,44.85
2019-04-16T06:53:15.354Z,44.76
2019-04-16T06:54:15.639Z,44.78
2019-04-16T06:55:15.648Z,44.85
2019-04-16T06:56:15.367Z,44.68
2019-04-16T06:57:15.107Z,44.2
2019-04-16T06:58:19.985Z,44.4
2019-04-16T06:59:19.110Z,44.78
2019-04-16T07:00:15.360Z,44.95
2019-04-16T07:01:15.117Z,44.95
2019-04-16T07:02:15.138Z,45.07
2019-04-16T07:03:15.370Z,43.82
2019-04-16T07:04:15.810Z,44.2
2019-04-16T07:05:15.129Z,43.46
2019-04-16T07:06:15.124Z,43.27
2019-04-16T07:07:15.132Z,42.23
2019-04-16T07:08:20.309Z,41.46
2019-04-16T07:09:15.431Z,42.13
2019-04-16T07:10:15.387Z,42.13
2019-04-16T07:11:15.369Z,41.27
2019-04-16T07:12:15.396Z,41.2
2019-04-16T07:13:15.395Z,40.23
2019-04-16T07:14:18.729Z,40.43
2019-04-16T07:15:15.623Z,39.49
2019-04-16T07:16:15.407Z,38.62
2019-04-16T07:17:17.530Z,39.2
2019-04-16T07:18:15.150Z,38.62
2019-04-16T07:19:16.941Z,38.43
2019-04-16T07:20:16.641Z,39.01
2019-04-16T07:21:19.489Z,39.54
2019-04-16T07:22:20.672Z,40.67
2019-04-16T07:23:15.233Z,41.88
2019-04-16T07:24:15.507Z,43.97
2019-04-16T07:25:16.386Z,45.48
2019-04-16T07:26:17.450Z,47.18
2019-04-16T07:27:19.415Z,48.21
2019-04-16T07:28:15.636Z,49.8
2019-04-16T07:29:15.716Z,50.84
2019-04-16T07:30:19.526Z,51.6
2019-04-16T07:31:33.063Z,51.76
2019-04-16T07:32:15.784Z,51.95
2019-04-16T07:33:15.423Z,50.55
2019-04-16T07:34:15.429Z,49.71
2019-04-16T07:35:15.204Z,47.82
2019-04-16T07:36:15.429Z,46.61
2019-04-16T07:37:15.428Z,44.81
2019-04-16T07:38:15.425Z,43.01
2019-04-16T07:39:31.254Z,41.11
2019-04-16T07:40:15.179Z,40.37
2019-04-16T07:41:17.090Z,39.81
2019-04-16T07:42:26.281Z,39.06
2019-04-16T07:43:18.256Z,38.87
2019-04-16T07:44:15.434Z,38.39
2019-04-16T07:45:15.686Z,38.78
2019-04-16T07:46:15.438Z,39.62
2019-04-16T07:47:19.603Z,40.75
2019-04-16T07:48:15.195Z,41.5
2019-04-16T07:49:15.438Z,42.63
2019-04-16T07:50:15.438Z,43.85
2019-04-16T07:51:15.193Z,44.23
2019-04-16T07:52:15.447Z,44.04
2019-04-16T07:53:16.757Z,44.04
2019-04-16T07:54:15.450Z,43.39
2019-04-16T07:55:15.194Z,41.97
2019-04-16T07:56:15.594Z,41.13
2019-04-16T07:57:15.654Z,40.84
2019-04-16T07:58:15.451Z,39.91
2019-04-16T07:59:15.453Z,39.53
2019-04-16T08:00:16.251Z,38.87
2019-04-16T08:01:18.724Z,38.51
2019-04-16T08:02:17.531Z,36.8
2019-04-16T08:03:15.455Z,36.72
2019-04-16T08:04:20.407Z,36.43
2019-04-16T08:05:15.462Z,35.58
2019-04-16T08:06:16.646Z,35.1
2019-04-16T08:07:20.055Z,34.45
2019-04-16T08:08:15.467Z,34.83
2019-04-16T08:09:15.477Z,34.54
2019-04-16T08:10:19.531Z,34.25
2019-04-16T08:11:15.250Z,34.06
2019-04-16T08:12:32.252Z,33.97
2019-04-16T08:13:16.613Z,34.08
2019-04-16T08:14:16.908Z,34.54
2019-04-16T08:15:17.756Z,35.95
2019-04-16T08:16:15.489Z,36.15
2019-04-16T08:17:15.512Z,36.33
2019-04-16T08:18:15.248Z,35.76
2019-04-16T08:19:18.534Z,35.77
2019-04-16T08:20:19.695Z,35
2019-04-16T08:21:15.510Z,35.49
2019-04-16T08:22:18.676Z,35.39
2019-04-16T08:23:16.595Z,34.83
2019-04-16T08:24:15.271Z,34.27
2019-04-16T08:25:15.518Z,34.27
2019-04-16T08:26:16.091Z,34.17
2019-04-16T08:27:20.492Z,32.92
2019-04-16T08:28:15.527Z,33.13
2019-04-16T08:29:15.287Z,33.51
2019-04-16T08:30:15.286Z,34.29
2019-04-16T08:31:15.713Z,34.08
2019-04-16T08:32:18.515Z,35.12
2019-04-16T08:33:15.552Z,35.99
2019-04-16T08:34:15.554Z,36.54
2019-04-16T08:35:15.549Z,37.1
2019-04-16T08:36:15.559Z,37.01
2019-04-16T08:37:15.555Z,37.57
2019-04-16T08:38:15.320Z,39.37
2019-04-16T08:39:15.325Z,40.31
2019-04-16T08:40:15.576Z,40.96
2019-04-16T08:41:22.315Z,41.61
2019-04-16T08:42:15.580Z,43.44
2019-04-16T08:43:15.583Z,44.47
2019-04-16T08:44:15.594Z,46.46
2019-04-16T08:45:15.584Z,46.72
2019-04-16T08:46:15.760Z,47.66
2019-04-16T08:47:15.603Z,47.85
2019-04-16T08:48:19.694Z,48.23
2019-04-16T08:49:22.003Z,48.61
2019-04-16T08:50:15.597Z,48.8
2019-04-16T08:51:29.294Z,49.38
2019-04-16T08:52:15.782Z,49.84
2019-04-16T08:53:16.726Z,50.41
2019-04-16T08:54:20.436Z,49.84
2019-04-16T08:55:15.667Z,49.55
2019-04-16T08:56:15.607Z,49
2019-04-16T08:57:15.599Z,49.09
2019-04-16T08:58:15.610Z,49.38
2019-04-16T08:59:15.357Z,49.29
2019-04-16T09:00:17.745Z,49.55
2019-04-16T09:01:23.491Z,50.41
2019-04-16T09:02:15.355Z,50.6
2019-04-16T09:03:17.905Z,51.84
2019-04-16T09:04:15.602Z,51.56
2019-04-16T09:05:15.599Z,52.03
2019-04-16T09:06:16.621Z,51.65
2019-04-16T09:07:19.870Z,50.6
2019-04-16T09:08:16.290Z,50.05
2019-04-16T09:09:24.269Z,48.71
2019-04-16T09:10:23.682Z,48.73
2019-04-16T09:11:28.499Z,48.16
2019-04-16T09:12:15.679Z,48.73
2019-04-16T09:13:17.687Z,48.73
2019-04-16T09:14:16.710Z,48.44
2019-04-16T09:15:15.595Z,48.73
2019-04-16T09:16:15.347Z,48.73
2019-04-16T09:17:15.616Z,48.64
2019-04-16T09:18:15.594Z,48.44
2019-04-16T09:19:15.595Z,48.64
2019-04-16T09:20:15.679Z,49.09
2019-04-16T09:21:15.664Z,48.54
2019-04-16T09:22:19.327Z,49.57
2019-04-16T09:23:15.652Z,49.4
2019-04-16T09:25:15.372Z,49.11
2019-04-16T09:26:22.477Z,48.64
2019-04-16T09:27:12.358Z,48.93
2019-04-16T09:28:25.092Z,48.64
2019-04-16T09:29:12.716Z,47.87
2019-04-16T09:30:16.836Z,48.07
2019-04-16T09:31:09.018Z,47.99
2019-04-16T09:32:09.257Z,48.75
2019-04-16T09:33:09.262Z,48.18
2019-04-16T09:34:09.520Z,47.32
2019-04-16T09:35:18.283Z,47.71
2019-04-16T09:36:09.267Z,48.09
2019-04-16T09:37:09.013Z,47.32
2019-04-16T09:38:14.649Z,46.39
2019-04-16T09:39:09.298Z,45.72
2019-04-16T09:40:20.134Z,45.14
2019-04-16T09:41:09.249Z,44.95
2019-04-16T09:42:09.011Z,45.83
2019-04-16T09:43:19.539Z,44.87
2019-04-16T09:44:09.267Z,45.16
2019-04-16T09:45:09.257Z,44.49
2019-04-16T09:46:20.768Z,44.59
2019-04-16T09:47:09.247Z,44.97
2019-04-16T09:48:09.248Z,44.4
2019-04-16T09:49:08.999Z,43.73
2019-04-16T09:50:13.686Z,44.01
2019-04-16T09:51:09.006Z,43.82
2019-04-16T09:52:09.257Z,43.74
2019-04-16T09:53:09.318Z,44.01
2019-04-16T09:54:15.138Z,44.97
2019-04-16T09:55:09.253Z,45.14
2019-04-16T09:56:09.258Z,45.33
2019-04-16T09:57:09.255Z,45.33
2019-04-16T09:58:09.461Z,45.14
2019-04-16T09:59:10.910Z,45.02
2019-04-16T10:00:10.901Z,45.52
2019-04-16T10:01:09.259Z,45.33
2019-04-16T10:02:09.014Z,45.52
2019-04-16T10:03:09.007Z,44.95
2019-04-16T10:04:09.252Z,44.95
2019-04-16T10:05:09.264Z,44.37
2019-04-16T10:06:09.263Z,45.07
2019-04-16T10:07:09.023Z,44.49
2019-04-16T10:08:14.436Z,43.91
2019-04-16T10:09:09.315Z,43.05
2019-04-16T10:10:09.034Z,43.84
2019-04-16T10:11:09.285Z,42.5
2019-04-16T10:12:10.607Z,41.83
2019-04-16T10:13:09.517Z,41.44
2019-04-16T10:14:09.271Z,41.25
2019-04-16T10:15:09.257Z,41.54
2019-04-16T10:16:09.286Z,43.94
2019-04-16T10:17:09.017Z,42.21
2019-04-16T10:18:09.266Z,41.93
2019-04-16T10:19:11.196Z,42.57
2019-04-16T10:20:09.261Z,43.24
2019-04-16T10:21:09.256Z,42.67
2019-04-16T10:22:09.264Z,42.4
2019-04-16T10:23:09.287Z,41.54
2019-04-16T10:24:09.265Z,41.93
2019-04-16T10:25:09.299Z,42.11
2019-04-16T10:26:09.268Z,42.5
2019-04-16T10:27:09.279Z,41.83
2019-04-16T10:28:09.274Z,42.02
2019-04-16T10:29:09.296Z,41.94
2019-04-16T10:30:09.310Z,41.37
2019-04-16T10:31:09.282Z,41.37
2019-04-16T10:32:09.295Z,40.7
2019-04-16T10:33:09.297Z,40.6
2019-04-16T10:34:09.039Z,40.5
2019-04-16T10:35:09.062Z,40.41
2019-04-16T10:36:09.017Z,40.12
2019-04-16T10:37:09.298Z,40.99
2019-04-16T10:38:09.275Z,41.46
2019-04-16T10:39:09.326Z,41.17
2019-04-16T10:40:09.062Z,41.37
2019-04-16T10:41:09.046Z,41.46
2019-04-16T10:42:09.029Z,41.17
2019-04-16T10:43:09.291Z,40.79
2019-04-16T10:44:09.051Z,40.99
2019-04-16T10:45:09.040Z,41.08
2019-04-16T10:46:12.252Z,41.27
2019-04-16T10:47:12.228Z,41.17
2019-04-16T10:48:09.283Z,41.46
2019-04-16T10:49:09.044Z,40.89
2019-04-16T10:50:09.308Z,41.37
2019-04-16T10:51:09.313Z,42.04
2019-04-16T10:52:09.313Z,41.85
2019-04-16T10:53:09.300Z,41.75
2019-04-16T10:54:09.316Z,41.85
2019-04-16T10:55:14.134Z,40.41
2019-04-16T10:56:09.305Z,40.41
2019-04-16T10:57:12.452Z,40.52
2019-04-16T10:58:09.299Z,41
2019-04-16T10:59:09.316Z,40.62
2019-04-16T11:00:09.057Z,40.43
2019-04-16T11:01:09.425Z,40.62
2019-04-16T11:02:12.351Z,40.89
2019-04-16T11:03:09.326Z,40.7
2019-04-16T11:04:10.284Z,40.6
2019-04-16T11:05:09.045Z,41.46
2019-04-16T11:06:09.302Z,41.25
2019-04-16T11:07:09.040Z,41.44
2019-04-16T11:08:10.461Z,42.02
2019-04-16T11:09:09.323Z,42.21
2019-04-16T11:10:11.734Z,41.85
2019-04-16T11:11:09.309Z,41.56
2019-04-16T11:12:09.299Z,40.79
2019-04-16T11:13:11.223Z,40.81
2019-04-16T11:14:09.336Z,40.43
2019-04-16T11:15:09.329Z,40.23
2019-04-16T11:16:09.321Z,40.91
2019-04-16T11:17:09.297Z,40.79
2019-04-16T11:18:09.058Z,41.37
2019-04-16T11:19:09.589Z,41.46
2019-04-16T11:20:09.076Z,41.37
2019-04-16T11:21:09.406Z,41.46
2019-04-16T11:22:09.346Z,41.54
2019-04-16T11:23:10.447Z,41.83
2019-04-16T11:24:09.582Z,42.02
2019-04-16T11:25:09.556Z,42.79
2019-04-16T11:26:09.046Z,42.5
2019-04-16T11:27:09.285Z,41.93
2019-04-16T11:28:09.316Z,41.46
2019-04-16T11:29:09.547Z,41.46
2019-04-16T11:30:09.234Z,40.99
2019-04-16T11:31:09.325Z,41.17
2019-04-16T11:32:09.747Z,40.99
2019-04-16T11:33:09.076Z,42.61
2019-04-16T11:34:09.094Z,41.27
2019-04-16T11:35:09.480Z,40.99
2019-04-16T11:36:21.345Z,42.69
2019-04-16T11:37:11.690Z,41.17
2019-04-16T11:38:09.373Z,41.27
2019-04-16T11:39:09.356Z,42.71
2019-04-16T11:40:09.323Z,42.61
2019-04-16T11:41:09.335Z,41.75
2019-04-16T11:42:09.588Z,40.89
2019-04-16T11:43:09.402Z,40.6
2019-04-16T11:44:17.569Z,40.5
2019-04-16T11:45:09.305Z,40.99
2019-04-16T11:46:09.396Z,41.08
2019-04-16T11:47:09.320Z,41.37
2019-04-16T11:48:09.445Z,40.99
2019-04-16T11:49:09.339Z,41.08
2019-04-16T11:50:09.425Z,40.6
2019-04-16T11:51:09.109Z,40.79
2019-04-16T11:52:09.311Z,40.31
2019-04-16T11:53:09.307Z,40.99
2019-04-16T11:54:11.682Z,40.79
2019-04-16T11:55:09.526Z,40.89
2019-04-16T11:56:09.297Z,41.08
2019-04-16T11:57:12.821Z,41.46
2019-04-16T11:58:09.346Z,41.75
2019-04-16T11:59:09.067Z,41.37
2019-04-16T12:00:11.046Z,41.17
2019-04-16T12:01:09.333Z,41.27
2019-04-16T12:02:09.354Z,40.99
2019-04-16T12:03:09.356Z,41.39
2019-04-16T12:04:10.856Z,41.29
2019-04-16T12:05:09.301Z,40.91
2019-04-16T12:06:09.303Z,40.91
2019-04-16T12:07:09.574Z,40.62
2019-04-16T12:08:09.518Z,40.62
2019-04-16T12:09:09.373Z,40.35
2019-04-16T12:10:09.513Z,40.35
2019-04-16T12:11:09.254Z,39.58
2019-04-16T12:12:09.339Z,39.87
2019-04-16T12:13:09.331Z,39.97
2019-04-16T12:14:11.955Z,40.06
2019-04-16T12:15:09.571Z,40.35
2019-04-16T12:16:09.349Z,39.95
2019-04-16T12:17:09.071Z,40.43
2019-04-16T12:18:09.108Z,40.72
2019-04-16T12:19:09.329Z,40.33
2019-04-16T12:20:09.104Z,41.1
2019-04-16T12:21:09.375Z,41
2019-04-16T12:22:09.313Z,40.52
2019-04-16T12:23:09.322Z,40.52
2019-04-16T12:24:09.347Z,40.43
2019-04-16T12:25:09.372Z,39.95
2019-04-16T12:26:11.918Z,39.37
2019-04-16T12:27:09.599Z,39.56
2019-04-16T12:28:14.398Z,39.37
2019-04-16T12:29:09.899Z,39.85
2019-04-16T12:30:09.351Z,40.05
2019-04-16T12:31:09.373Z,40.33
2019-04-16T12:32:09.650Z,39.95
2019-04-16T12:33:13.793Z,40.05
2019-04-16T12:34:09.364Z,40.72
2019-04-16T12:35:09.383Z,40.62
2019-04-16T12:36:12.729Z,40.43
2019-04-16T12:37:09.089Z,40.72
2019-04-16T12:38:18.433Z,40.81
2019-04-16T12:39:09.371Z,40.33
2019-04-16T12:40:09.356Z,40.45
2019-04-16T12:41:09.136Z,40.35
2019-04-16T12:42:09.365Z,39.87
2019-04-16T12:43:14.641Z,39.68
2019-04-16T12:44:09.573Z,39.49
2019-04-16T12:45:11.771Z,39.29
2019-04-16T12:46:09.141Z,39.39
2019-04-16T12:47:09.429Z,39.49
2019-04-16T12:48:09.149Z,39.39
2019-04-16T12:49:09.112Z,39.78
2019-04-16T12:50:09.094Z,39.87
2019-04-16T12:51:09.375Z,39.97
2019-04-16T12:52:15.205Z,39.87
2019-04-16T12:53:09.459Z,39.2
2019-04-16T12:54:09.393Z,39.78
2019-04-16T12:55:09.126Z,39.68
2019-04-16T12:56:11.253Z,39.58